sensor_id;sensor_type;location;lat;lon;timestamp;temperature;humidity
71994;DHT22;59861;50.268;8.648;2022-12-18T00:02:02;13.30;49.20
71994;DHT22;59861;50.268;8.648;2022-12-18T00:04:29;13.20;49.20
71994;DHT22;59861;50.268;8.648;2022-12-18T00:06:56;13.20;49.20
71994;DHT22;59861;50.268;8.648;2022-12-18T00:09:23;13.20;49.20
71994;DHT22;59861;50.268;8.648;2022-12-18T00:11:50;13.20;49.10
71994;DHT22;59861;50.268;8.648;2022-12-18T00:14:17;13.20;49.10
71994;DHT22;59861;50.268;8.648;2022-12-18T00:16:44;13.20;49.00
71994;DHT22;59861;50.268;8.648;2022-12-18T00:19:12;13.20;48.90
71994;DHT22;59861;50.268;8.648;2022-12-18T00:21:40;13.20;49.00
71994;DHT22;59861;50.268;8.648;2022-12-18T00:24:07;13.20;49.00
71994;DHT22;59861;50.268;8.648;2022-12-18T00:26:34;13.20;48.90
71994;DHT22;59861;50.268;8.648;2022-12-18T00:29:02;13.20;48.80
71994;DHT22;59861;50.268;8.648;2022-12-18T00:31:29;13.20;48.90
71994;DHT22;59861;50.268;8.648;2022-12-18T00:33:56;13.20;48.80
71994;DHT22;59861;50.268;8.648;2022-12-18T00:36:24;13.20;49.00
71994;DHT22;59861;50.268;8.648;2022-12-18T00:38:53;13.20;48.90
71994;DHT22;59861;50.268;8.648;2022-12-18T00:41:20;13.20;48.90
71994;DHT22;59861;50.268;8.648;2022-12-18T00:44:06;13.10;48.80
71994;DHT22;59861;50.268;8.648;2022-12-18T00:46:33;13.20;48.80
71994;DHT22;59861;50.268;8.648;2022-12-18T00:48:59;13.10;48.70
71994;DHT22;59861;50.268;8.648;2022-12-18T00:51:26;13.10;48.70
71994;DHT22;59861;50.268;8.648;2022-12-18T00:53:53;13.10;48.70
71994;DHT22;59861;50.268;8.648;2022-12-18T00:56:20;13.10;48.80
71994;DHT22;59861;50.268;8.648;2022-12-18T00:58:47;13.10;48.70
71994;DHT22;59861;50.268;8.648;2022-12-18T01:01:13;13.10;49.30
71994;DHT22;59861;50.268;8.648;2022-12-18T01:03:40;13.10;48.70
71994;DHT22;59861;50.268;8.648;2022-12-18T01:06:09;13.10;48.60
71994;DHT22;59861;50.268;8.648;2022-12-18T01:08:36;13.10;48.60
71994;DHT22;59861;50.268;8.648;2022-12-18T01:11:14;13.10;48.70
71994;DHT22;59861;50.268;8.648;2022-12-18T01:13:38;13.10;48.60
71994;DHT22;59861;50.268;8.648;2022-12-18T01:16:05;13.10;48.60
71994;DHT22;59861;50.268;8.648;2022-12-18T01:18:32;13.10;48.50
71994;DHT22;59861;50.268;8.648;2022-12-18T01:20:59;13.10;48.50
71994;DHT22;59861;50.268;8.648;2022-12-18T01:23:26;13.10;49.20
71994;DHT22;59861;50.268;8.648;2022-12-18T01:25:52;13.10;48.50
71994;DHT22;59861;50.268;8.648;2022-12-18T01:28:19;13.10;48.50
71994;DHT22;59861;50.268;8.648;2022-12-18T01:30:46;13.00;48.50
71994;DHT22;59861;50.268;8.648;2022-12-18T01:33:13;13.10;48.40
71994;DHT22;59861;50.268;8.648;2022-12-18T01:35:40;13.00;48.40
71994;DHT22;59861;50.268;8.648;2022-12-18T01:38:07;13.10;48.50
71994;DHT22;59861;50.268;8.648;2022-12-18T01:40:34;13.10;48.40
71994;DHT22;59861;50.268;8.648;2022-12-18T01:43:01;13.10;48.60
71994;DHT22;59861;50.268;8.648;2022-12-18T01:45:28;13.10;48.40
71994;DHT22;59861;50.268;8.648;2022-12-18T01:47:56;13.00;48.30
71994;DHT22;59861;50.268;8.648;2022-12-18T01:50:25;13.00;48.30
71994;DHT22;59861;50.268;8.648;2022-12-18T01:52:53;13.00;48.30
71994;DHT22;59861;50.268;8.648;2022-12-18T01:55:22;13.00;48.30
71994;DHT22;59861;50.268;8.648;2022-12-18T01:57:49;13.00;48.30
71994;DHT22;59861;50.268;8.648;2022-12-18T02:00:18;13.00;48.20
71994;DHT22;59861;50.268;8.648;2022-12-18T02:02:45;13.00;48.20
71994;DHT22;59861;50.268;8.648;2022-12-18T02:05:23;13.00;48.10
71994;DHT22;59861;50.268;8.648;2022-12-18T02:10:29;13.00;48.10
71994;DHT22;59861;50.268;8.648;2022-12-18T02:13:00;13.00;48.10
71994;DHT22;59861;50.268;8.648;2022-12-18T02:15:32;13.00;48.10
71994;DHT22;59861;50.268;8.648;2022-12-18T02:18:10;13.00;48.10
71994;DHT22;59861;50.268;8.648;2022-12-18T02:20:40;13.00;48.20
71994;DHT22;59861;50.268;8.648;2022-12-18T02:23:19;13.00;48.00
71994;DHT22;59861;50.268;8.648;2022-12-18T02:28:25;13.00;47.90
71994;DHT22;59861;50.268;8.648;2022-12-18T02:30:53;13.00;47.90
71994;DHT22;59861;50.268;8.648;2022-12-18T02:33:23;13.00;48.10
71994;DHT22;59861;50.268;8.648;2022-12-18T02:35:49;12.90;48.00
71994;DHT22;59861;50.268;8.648;2022-12-18T02:38:17;13.00;48.00
71994;DHT22;59861;50.268;8.648;2022-12-18T02:40:44;12.90;47.80
71994;DHT22;59861;50.268;8.648;2022-12-18T02:43:12;12.90;47.80
71994;DHT22;59861;50.268;8.648;2022-12-18T02:45:47;12.90;48.00
71994;DHT22;59861;50.268;8.648;2022-12-18T02:48:14;12.90;48.00
71994;DHT22;59861;50.268;8.648;2022-12-18T02:50:44;12.90;47.90
71994;DHT22;59861;50.268;8.648;2022-12-18T02:53:10;12.90;48.00
71994;DHT22;59861;50.268;8.648;2022-12-18T02:58:33;12.90;47.70
71994;DHT22;59861;50.268;8.648;2022-12-18T03:01:26;12.90;47.70
71994;DHT22;59861;50.268;8.648;2022-12-18T03:03:31;12.90;47.70
71994;DHT22;59861;50.268;8.648;2022-12-18T03:06:02;12.90;47.80
71994;DHT22;59861;50.268;8.648;2022-12-18T03:08:31;12.90;47.80
71994;DHT22;59861;50.268;8.648;2022-12-18T03:10:59;12.90;47.70
71994;DHT22;59861;50.268;8.648;2022-12-18T03:13:49;12.90;47.70
71994;DHT22;59861;50.268;8.648;2022-12-18T03:15:55;12.90;47.80
71994;DHT22;59861;50.268;8.648;2022-12-18T03:18:30;12.90;47.80
71994;DHT22;59861;50.268;8.648;2022-12-18T03:20:58;12.90;47.90
71994;DHT22;59861;50.268;8.648;2022-12-18T03:23:23;12.80;47.80
71994;DHT22;59861;50.268;8.648;2022-12-18T03:25:51;12.90;47.80
71994;DHT22;59861;50.268;8.648;2022-12-18T03:28:20;12.90;47.80
71994;DHT22;59861;50.268;8.648;2022-12-18T03:30:47;12.90;47.80
71994;DHT22;59861;50.268;8.648;2022-12-18T03:33:19;12.90;47.80
71994;DHT22;59861;50.268;8.648;2022-12-18T03:35:46;12.90;47.80
71994;DHT22;59861;50.268;8.648;2022-12-18T03:38:13;12.90;47.80
71994;DHT22;59861;50.268;8.648;2022-12-18T03:45:57;12.80;47.70
71994;DHT22;59861;50.268;8.648;2022-12-18T03:48:26;12.80;47.80
71994;DHT22;59861;50.268;8.648;2022-12-18T03:50:56;12.80;47.70
71994;DHT22;59861;50.268;8.648;2022-12-18T03:53:29;12.80;47.70
71994;DHT22;59861;50.268;8.648;2022-12-18T03:55:54;12.80;47.80
71994;DHT22;59861;50.268;8.648;2022-12-18T03:58:23;12.80;47.70
71994;DHT22;59861;50.268;8.648;2022-12-18T04:00:50;12.80;47.60
71994;DHT22;59861;50.268;8.648;2022-12-18T04:03:18;12.80;47.60
71994;DHT22;59861;50.268;8.648;2022-12-18T04:05:46;12.80;47.60
71994;DHT22;59861;50.268;8.648;2022-12-18T04:08:14;12.80;47.60
71994;DHT22;59861;50.268;8.648;2022-12-18T04:10:41;12.80;47.50
71994;DHT22;59861;50.268;8.648;2022-12-18T04:13:09;12.80;47.50
71994;DHT22;59861;50.268;8.648;2022-12-18T04:15:36;12.80;47.50
71994;DHT22;59861;50.268;8.648;2022-12-18T04:18:04;12.80;47.50
71994;DHT22;59861;50.268;8.648;2022-12-18T04:20:31;12.80;47.50
71994;DHT22;59861;50.268;8.648;2022-12-18T04:22:57;12.80;47.50
71994;DHT22;59861;50.268;8.648;2022-12-18T04:25:24;12.80;47.50
71994;DHT22;59861;50.268;8.648;2022-12-18T04:27:51;12.80;48.20
71994;DHT22;59861;50.268;8.648;2022-12-18T04:30:18;12.80;47.60
71994;DHT22;59861;50.268;8.648;2022-12-18T04:32:45;12.80;47.50
71994;DHT22;59861;50.268;8.648;2022-12-18T04:35:11;12.80;47.40
71994;DHT22;59861;50.268;8.648;2022-12-18T04:37:38;12.80;47.40
71994;DHT22;59861;50.268;8.648;2022-12-18T04:40:05;12.80;47.50
71994;DHT22;59861;50.268;8.648;2022-12-18T04:42:32;12.80;47.50
71994;DHT22;59861;50.268;8.648;2022-12-18T04:44:59;12.80;47.50
71994;DHT22;59861;50.268;8.648;2022-12-18T04:47:26;12.80;47.60
71994;DHT22;59861;50.268;8.648;2022-12-18T04:49:53;12.80;47.50
71994;DHT22;59861;50.268;8.648;2022-12-18T04:52:19;12.80;47.50
71994;DHT22;59861;50.268;8.648;2022-12-18T04:54:46;12.80;47.40
71994;DHT22;59861;50.268;8.648;2022-12-18T04:57:13;12.80;47.50
71994;DHT22;59861;50.268;8.648;2022-12-18T04:59:40;12.80;47.50
71994;DHT22;59861;50.268;8.648;2022-12-18T05:02:07;12.80;47.50
71994;DHT22;59861;50.268;8.648;2022-12-18T05:04:34;12.70;47.40
71994;DHT22;59861;50.268;8.648;2022-12-18T05:07:00;12.80;47.40
71994;DHT22;59861;50.268;8.648;2022-12-18T05:09:27;12.80;47.40
71994;DHT22;59861;50.268;8.648;2022-12-18T05:11:54;12.80;47.40
71994;DHT22;59861;50.268;8.648;2022-12-18T05:14:21;12.70;47.20
71994;DHT22;59861;50.268;8.648;2022-12-18T05:16:47;12.70;47.30
71994;DHT22;59861;50.268;8.648;2022-12-18T05:19:14;12.80;47.40
71994;DHT22;59861;50.268;8.648;2022-12-18T05:21:41;12.70;47.40
71994;DHT22;59861;50.268;8.648;2022-12-18T05:24:08;12.70;47.30
71994;DHT22;59861;50.268;8.648;2022-12-18T05:26:35;12.70;47.30
71994;DHT22;59861;50.268;8.648;2022-12-18T05:29:02;12.70;47.30
71994;DHT22;59861;50.268;8.648;2022-12-18T05:31:28;12.70;47.30
71994;DHT22;59861;50.268;8.648;2022-12-18T05:33:55;12.70;47.30
71994;DHT22;59861;50.268;8.648;2022-12-18T05:36:22;12.70;47.30
71994;DHT22;59861;50.268;8.648;2022-12-18T05:38:49;12.70;47.30
71994;DHT22;59861;50.268;8.648;2022-12-18T05:41:16;12.70;47.30
71994;DHT22;59861;50.268;8.648;2022-12-18T05:43:42;12.70;47.20
71994;DHT22;59861;50.268;8.648;2022-12-18T05:46:13;12.70;47.30
71994;DHT22;59861;50.268;8.648;2022-12-18T05:48:41;12.70;47.30
71994;DHT22;59861;50.268;8.648;2022-12-18T05:51:14;12.70;47.30
71994;DHT22;59861;50.268;8.648;2022-12-18T05:53:37;12.70;47.30
71994;DHT22;59861;50.268;8.648;2022-12-18T05:56:05;12.70;47.30
71994;DHT22;59861;50.268;8.648;2022-12-18T05:58:32;12.70;47.20
71994;DHT22;59861;50.268;8.648;2022-12-18T06:01:05;12.70;47.20
71994;DHT22;59861;50.268;8.648;2022-12-18T06:03:27;12.70;47.10
71994;DHT22;59861;50.268;8.648;2022-12-18T06:05:54;12.70;47.20
71994;DHT22;59861;50.268;8.648;2022-12-18T06:08:20;12.70;47.30
71994;DHT22;59861;50.268;8.648;2022-12-18T06:10:51;12.70;47.20
71994;DHT22;59861;50.268;8.648;2022-12-18T06:13:19;12.70;47.30
71994;DHT22;59861;50.268;8.648;2022-12-18T06:15:46;12.70;47.10
71994;DHT22;59861;50.268;8.648;2022-12-18T06:18:12;12.70;47.10
71994;DHT22;59861;50.268;8.648;2022-12-18T06:20:39;12.70;47.20
71994;DHT22;59861;50.268;8.648;2022-12-18T06:23:07;12.70;47.20
71994;DHT22;59861;50.268;8.648;2022-12-18T06:25:36;12.70;47.10
71994;DHT22;59861;50.268;8.648;2022-12-18T06:28:03;12.70;47.30
71994;DHT22;59861;50.268;8.648;2022-12-18T06:30:30;12.70;47.10
71994;DHT22;59861;50.268;8.648;2022-12-18T06:32:57;12.70;47.20
71994;DHT22;59861;50.268;8.648;2022-12-18T06:35:24;12.70;47.10
71994;DHT22;59861;50.268;8.648;2022-12-18T06:37:50;12.70;47.40
71994;DHT22;59861;50.268;8.648;2022-12-18T06:40:17;12.70;47.10
71994;DHT22;59861;50.268;8.648;2022-12-18T06:42:44;12.70;47.20
71994;DHT22;59861;50.268;8.648;2022-12-18T06:45:11;12.70;47.20
71994;DHT22;59861;50.268;8.648;2022-12-18T06:47:38;12.60;47.10
71994;DHT22;59861;50.268;8.648;2022-12-18T06:50:05;12.70;47.10
71994;DHT22;59861;50.268;8.648;2022-12-18T06:52:32;12.70;47.00
71994;DHT22;59861;50.268;8.648;2022-12-18T06:54:59;12.70;47.00
71994;DHT22;59861;50.268;8.648;2022-12-18T06:57:26;12.70;47.00
71994;DHT22;59861;50.268;8.648;2022-12-18T06:59:53;12.70;47.10
71994;DHT22;59861;50.268;8.648;2022-12-18T07:02:20;12.60;47.20
71994;DHT22;59861;50.268;8.648;2022-12-18T07:04:47;12.70;47.10
71994;DHT22;59861;50.268;8.648;2022-12-18T07:07:13;12.70;47.10
71994;DHT22;59861;50.268;8.648;2022-12-18T07:09:40;12.70;47.10
71994;DHT22;59861;50.268;8.648;2022-12-18T07:12:07;12.70;47.20
71994;DHT22;59861;50.268;8.648;2022-12-18T07:14:34;12.60;47.10
71994;DHT22;59861;50.268;8.648;2022-12-18T07:17:01;12.60;47.10
71994;DHT22;59861;50.268;8.648;2022-12-18T07:19:28;12.70;47.10
71994;DHT22;59861;50.268;8.648;2022-12-18T07:21:55;12.60;47.20
71994;DHT22;59861;50.268;8.648;2022-12-18T07:24:22;12.60;47.30
71994;DHT22;59861;50.268;8.648;2022-12-18T07:26:49;12.60;47.40
71994;DHT22;59861;50.268;8.648;2022-12-18T07:29:16;12.60;47.40
71994;DHT22;59861;50.268;8.648;2022-12-18T07:31:43;12.60;47.40
71994;DHT22;59861;50.268;8.648;2022-12-18T07:34:11;12.60;47.40
71994;DHT22;59861;50.268;8.648;2022-12-18T07:36:38;12.60;47.40
71994;DHT22;59861;50.268;8.648;2022-12-18T07:39:05;12.60;47.40
71994;DHT22;59861;50.268;8.648;2022-12-18T07:41:32;12.60;47.40
71994;DHT22;59861;50.268;8.648;2022-12-18T07:43:58;12.60;47.50
71994;DHT22;59861;50.268;8.648;2022-12-18T07:46:25;12.60;47.40
71994;DHT22;59861;50.268;8.648;2022-12-18T07:48:52;12.60;47.40
71994;DHT22;59861;50.268;8.648;2022-12-18T07:51:19;12.60;47.20
71994;DHT22;59861;50.268;8.648;2022-12-18T07:53:46;12.60;47.20
71994;DHT22;59861;50.268;8.648;2022-12-18T07:56:13;12.60;47.20
71994;DHT22;59861;50.268;8.648;2022-12-18T07:58:40;12.60;47.10
71994;DHT22;59861;50.268;8.648;2022-12-18T08:01:07;12.60;47.10
71994;DHT22;59861;50.268;8.648;2022-12-18T08:03:35;12.60;47.10
71994;DHT22;59861;50.268;8.648;2022-12-18T08:06:02;12.60;47.20
71994;DHT22;59861;50.268;8.648;2022-12-18T08:08:29;12.60;47.30
71994;DHT22;59861;50.268;8.648;2022-12-18T08:10:56;8.70;33.20
71994;DHT22;59861;50.268;8.648;2022-12-18T08:13:23;6.70;43.40
71994;DHT22;59861;50.268;8.648;2022-12-18T08:15:57;8.70;49.50
71994;DHT22;59861;50.268;8.648;2022-12-18T08:18:24;10.10;48.90
71994;DHT22;59861;50.268;8.648;2022-12-18T08:20:51;11.00;47.70
71994;DHT22;59861;50.268;8.648;2022-12-18T08:23:18;11.50;47.00
71994;DHT22;59861;50.268;8.648;2022-12-18T08:25:45;11.90;46.50
71994;DHT22;59861;50.268;8.648;2022-12-18T08:28:14;12.10;46.40
71994;DHT22;59861;50.268;8.648;2022-12-18T08:30:42;12.20;46.30
71994;DHT22;59861;50.268;8.648;2022-12-18T08:33:08;12.30;46.40
71994;DHT22;59861;50.268;8.648;2022-12-18T08:35:35;12.40;46.50
71994;DHT22;59861;50.268;8.648;2022-12-18T08:38:02;12.50;46.70
71994;DHT22;59861;50.268;8.648;2022-12-18T08:40:29;12.60;46.80
71994;DHT22;59861;50.268;8.648;2022-12-18T08:42:56;12.70;46.90
71994;DHT22;59861;50.268;8.648;2022-12-18T08:45:41;12.70;47.00
71994;DHT22;59861;50.268;8.648;2022-12-18T08:48:08;12.70;47.20
71994;DHT22;59861;50.268;8.648;2022-12-18T08:50:35;12.80;47.20
71994;DHT22;59861;50.268;8.648;2022-12-18T08:53:02;12.80;47.40
71994;DHT22;59861;50.268;8.648;2022-12-18T08:55:29;12.90;47.40
71994;DHT22;59861;50.268;8.648;2022-12-18T08:57:56;13.00;47.50
71994;DHT22;59861;50.268;8.648;2022-12-18T09:00:22;12.90;47.60
71994;DHT22;59861;50.268;8.648;2022-12-18T09:02:49;13.00;47.80
71994;DHT22;59861;50.268;8.648;2022-12-18T09:05:16;13.00;48.00
71994;DHT22;59861;50.268;8.648;2022-12-18T09:07:43;13.10;48.00
71994;DHT22;59861;50.268;8.648;2022-12-18T09:10:10;13.10;48.20
71994;DHT22;59861;50.268;8.648;2022-12-18T09:12:36;13.10;48.20
71994;DHT22;59861;50.268;8.648;2022-12-18T09:15:03;13.20;48.30
71994;DHT22;59861;50.268;8.648;2022-12-18T09:17:30;13.20;48.40
71994;DHT22;59861;50.268;8.648;2022-12-18T09:19:57;13.20;48.40
71994;DHT22;59861;50.268;8.648;2022-12-18T09:22:24;13.30;48.60
71994;DHT22;59861;50.268;8.648;2022-12-18T09:24:51;13.30;48.60
71994;DHT22;59861;50.268;8.648;2022-12-18T09:27:18;13.30;48.70
71994;DHT22;59861;50.268;8.648;2022-12-18T09:29:44;13.30;48.60
71994;DHT22;59861;50.268;8.648;2022-12-18T09:32:11;13.40;48.80
71994;DHT22;59861;50.268;8.648;2022-12-18T09:34:38;13.30;48.70
71994;DHT22;59861;50.268;8.648;2022-12-18T09:37:05;13.40;49.00
71994;DHT22;59861;50.268;8.648;2022-12-18T09:39:32;13.40;48.90
71994;DHT22;59861;50.268;8.648;2022-12-18T09:41:59;13.40;49.00
71994;DHT22;59861;50.268;8.648;2022-12-18T09:44:36;13.40;49.00
71994;DHT22;59861;50.268;8.648;2022-12-18T09:47:17;13.50;49.10
71994;DHT22;59861;50.268;8.648;2022-12-18T09:49:42;13.50;49.40
71994;DHT22;59861;50.268;8.648;2022-12-18T09:52:13;13.50;49.20
71994;DHT22;59861;50.268;8.648;2022-12-18T09:54:40;13.50;49.20
71994;DHT22;59861;50.268;8.648;2022-12-18T09:57:11;13.60;49.40
71994;DHT22;59861;50.268;8.648;2022-12-18T09:59:36;13.60;49.30
71994;DHT22;59861;50.268;8.648;2022-12-18T10:02:13;13.60;49.40
71994;DHT22;59861;50.268;8.648;2022-12-18T10:04:40;13.60;49.40
71994;DHT22;59861;50.268;8.648;2022-12-18T10:07:19;13.60;49.40
71994;DHT22;59861;50.268;8.648;2022-12-18T10:09:57;13.70;49.60
71994;DHT22;59861;50.268;8.648;2022-12-18T10:21:02;13.80;49.70
71994;DHT22;59861;50.268;8.648;2022-12-18T10:25:19;13.70;49.70
71994;DHT22;59861;50.268;8.648;2022-12-18T10:27:45;13.80;49.80
71994;DHT22;59861;50.268;8.648;2022-12-18T10:30:18;13.80;49.80
71994;DHT22;59861;50.268;8.648;2022-12-18T10:32:41;13.90;49.80
71994;DHT22;59861;50.268;8.648;2022-12-18T10:35:11;13.90;50.00
71994;DHT22;59861;50.268;8.648;2022-12-18T10:37:36;13.90;50.00
71994;DHT22;59861;50.268;8.648;2022-12-18T10:40:08;13.90;50.10
71994;DHT22;59861;50.268;8.648;2022-12-18T10:42:34;13.90;50.10
71994;DHT22;59861;50.268;8.648;2022-12-18T10:45:09;13.90;50.10
71994;DHT22;59861;50.268;8.648;2022-12-18T10:47:29;14.00;50.10
71994;DHT22;59861;50.268;8.648;2022-12-18T10:49:56;14.00;50.20
71994;DHT22;59861;50.268;8.648;2022-12-18T10:52:24;14.00;50.20
71994;DHT22;59861;50.268;8.648;2022-12-18T10:54:52;14.00;50.20
71994;DHT22;59861;50.268;8.648;2022-12-18T10:59:54;14.10;50.30
71994;DHT22;59861;50.268;8.648;2022-12-18T11:02:27;14.00;50.30
71994;DHT22;59861;50.268;8.648;2022-12-18T11:04:50;14.10;50.40
71994;DHT22;59861;50.268;8.648;2022-12-18T11:07:17;14.00;50.40
71994;DHT22;59861;50.268;8.648;2022-12-18T11:09:45;14.10;50.50
71994;DHT22;59861;50.268;8.648;2022-12-18T11:12:20;14.10;50.50
71994;DHT22;59861;50.268;8.648;2022-12-18T11:14:47;14.10;50.50
71994;DHT22;59861;50.268;8.648;2022-12-18T11:17:22;14.10;50.60
71994;DHT22;59861;50.268;8.648;2022-12-18T11:19:57;14.10;50.70
71994;DHT22;59861;50.268;8.648;2022-12-18T11:22:24;14.10;50.70
71994;DHT22;59861;50.268;8.648;2022-12-18T11:25:00;14.20;50.80
71994;DHT22;59861;50.268;8.648;2022-12-18T11:27:28;14.20;50.90
71994;DHT22;59861;50.268;8.648;2022-12-18T11:30:22;14.20;50.70
71994;DHT22;59861;50.268;8.648;2022-12-18T11:32:37;14.20;50.80
71994;DHT22;59861;50.268;8.648;2022-12-18T11:35:12;14.20;50.80
71994;DHT22;59861;50.268;8.648;2022-12-18T11:37:35;14.20;50.90
71994;DHT22;59861;50.268;8.648;2022-12-18T11:40:04;14.20;50.90
71994;DHT22;59861;50.268;8.648;2022-12-18T11:42:35;14.20;50.90
71994;DHT22;59861;50.268;8.648;2022-12-18T11:51:04;14.30;51.00
71994;DHT22;59861;50.268;8.648;2022-12-18T11:52:46;14.30;51.10
71994;DHT22;59861;50.268;8.648;2022-12-18T11:55:19;14.30;51.10
71994;DHT22;59861;50.268;8.648;2022-12-18T12:00:26;14.30;51.20
71994;DHT22;59861;50.268;8.648;2022-12-18T12:10:53;14.40;51.30
71994;DHT22;59861;50.268;8.648;2022-12-18T12:13:18;14.40;51.30
71994;DHT22;59861;50.268;8.648;2022-12-18T12:15:47;14.50;51.20
71994;DHT22;59861;50.268;8.648;2022-12-18T12:23:34;14.00;50.30
71994;DHT22;59861;50.268;8.648;2022-12-18T12:26:01;13.90;50.20
71994;DHT22;59861;50.268;8.648;2022-12-18T12:28:38;13.90;50.10
71994;DHT22;59861;50.268;8.648;2022-12-18T12:31:05;13.80;49.90
71994;DHT22;59861;50.268;8.648;2022-12-18T12:36:05;13.90;49.50
71994;DHT22;59861;50.268;8.648;2022-12-18T12:38:35;14.00;49.40
71994;DHT22;59861;50.268;8.648;2022-12-18T12:41:03;14.10;49.30
71994;DHT22;59861;50.268;8.648;2022-12-18T12:43:28;14.10;49.40
71994;DHT22;59861;50.268;8.648;2022-12-18T12:45:55;14.20;49.30
71994;DHT22;59861;50.268;8.648;2022-12-18T12:50:59;14.40;49.50
71994;DHT22;59861;50.268;8.648;2022-12-18T12:53:29;14.30;49.30
71994;DHT22;59861;50.268;8.648;2022-12-18T12:55:55;14.40;49.40
71994;DHT22;59861;50.268;8.648;2022-12-18T13:01:09;14.40;49.60
71994;DHT22;59861;50.268;8.648;2022-12-18T13:03:43;14.40;49.80
71994;DHT22;59861;50.268;8.648;2022-12-18T13:06:19;14.40;49.60
71994;DHT22;59861;50.268;8.648;2022-12-18T13:09:00;14.40;49.80
71994;DHT22;59861;50.268;8.648;2022-12-18T13:11:15;14.50;49.80
71994;DHT22;59861;50.268;8.648;2022-12-18T13:13:59;14.50;49.80
71994;DHT22;59861;50.268;8.648;2022-12-18T13:16:26;14.50;49.90
71994;DHT22;59861;50.268;8.648;2022-12-18T13:18:56;14.50;50.00
71994;DHT22;59861;50.268;8.648;2022-12-18T13:21:28;14.40;50.00
71994;DHT22;59861;50.268;8.648;2022-12-18T13:23:55;14.10;49.50
71994;DHT22;59861;50.268;8.648;2022-12-18T13:28:52;14.00;49.10
71994;DHT22;59861;50.268;8.648;2022-12-18T13:34:17;14.10;49.30
71994;DHT22;59861;50.268;8.648;2022-12-18T13:36:45;14.00;49.40
71994;DHT22;59861;50.268;8.648;2022-12-18T13:41:52;13.70;49.30
71994;DHT22;59861;50.268;8.648;2022-12-18T13:44:28;13.90;48.90
71994;DHT22;59861;50.268;8.648;2022-12-18T13:46:53;13.90;48.90
71994;DHT22;59861;50.268;8.648;2022-12-18T13:49:39;13.80;49.00
71994;DHT22;59861;50.268;8.648;2022-12-18T13:52:17;13.80;49.00
71994;DHT22;59861;50.268;8.648;2022-12-18T13:54:50;14.00;49.10
71994;DHT22;59861;50.268;8.648;2022-12-18T13:57:26;14.10;49.00
71994;DHT22;59861;50.268;8.648;2022-12-18T13:59:54;14.10;48.90
71994;DHT22;59861;50.268;8.648;2022-12-18T14:02:26;14.20;49.00
71994;DHT22;59861;50.268;8.648;2022-12-18T14:04:50;14.20;49.00
71994;DHT22;59861;50.268;8.648;2022-12-18T14:07:24;14.20;49.00
71994;DHT22;59861;50.268;8.648;2022-12-18T14:09:53;14.20;49.10
71994;DHT22;59861;50.268;8.648;2022-12-18T14:12:33;14.30;49.10
71994;DHT22;59861;50.268;8.648;2022-12-18T14:18:55;14.30;49.20
71994;DHT22;59861;50.268;8.648;2022-12-18T14:20:31;14.40;49.20
71994;DHT22;59861;50.268;8.648;2022-12-18T14:22:58;14.30;49.30
71994;DHT22;59861;50.268;8.648;2022-12-18T14:25:27;14.30;49.40
71994;DHT22;59861;50.268;8.648;2022-12-18T14:30:39;14.40;49.50
71994;DHT22;59861;50.268;8.648;2022-12-18T14:33:17;14.40;49.40
71994;DHT22;59861;50.268;8.648;2022-12-18T14:36:02;14.40;49.50
71994;DHT22;59861;50.268;8.648;2022-12-18T14:38:37;14.40;49.50
71994;DHT22;59861;50.268;8.648;2022-12-18T14:41:01;14.40;49.60
71994;DHT22;59861;50.268;8.648;2022-12-18T14:43:31;14.40;49.60
71994;DHT22;59861;50.268;8.648;2022-12-18T14:45:57;14.40;49.60
71994;DHT22;59861;50.268;8.648;2022-12-18T14:51:00;14.40;49.70
71994;DHT22;59861;50.268;8.648;2022-12-18T14:53:37;14.40;49.70
71994;DHT22;59861;50.268;8.648;2022-12-18T14:55:55;14.40;49.70
71994;DHT22;59861;50.268;8.648;2022-12-18T14:58:22;14.50;49.90
71994;DHT22;59861;50.268;8.648;2022-12-18T15:00:49;14.50;49.80
71994;DHT22;59861;50.268;8.648;2022-12-18T15:03:17;14.30;49.80
71994;DHT22;59861;50.268;8.648;2022-12-18T15:05:45;14.00;49.50
71994;DHT22;59861;50.268;8.648;2022-12-18T15:08:32;13.90;49.60
71994;DHT22;59861;50.268;8.648;2022-12-18T15:10:58;13.90;49.10
71994;DHT22;59861;50.268;8.648;2022-12-18T15:13:25;13.80;49.20
71994;DHT22;59861;50.268;8.648;2022-12-18T15:15:52;13.80;49.20
71994;DHT22;59861;50.268;8.648;2022-12-18T15:18:21;13.90;49.20
71994;DHT22;59861;50.268;8.648;2022-12-18T15:20:49;14.10;49.00
71994;DHT22;59861;50.268;8.648;2022-12-18T15:23:24;14.20;48.90
71994;DHT22;59861;50.268;8.648;2022-12-18T15:25:55;14.30;48.80
71994;DHT22;59861;50.268;8.648;2022-12-18T15:28:23;14.20;48.90
71994;DHT22;59861;50.268;8.648;2022-12-18T15:31:00;14.20;49.00
71994;DHT22;59861;50.268;8.648;2022-12-18T15:33:33;14.20;49.00
71994;DHT22;59861;50.268;8.648;2022-12-18T15:35:57;14.30;49.10
71994;DHT22;59861;50.268;8.648;2022-12-18T15:38:24;14.30;49.10
71994;DHT22;59861;50.268;8.648;2022-12-18T15:40:51;14.30;49.10
71994;DHT22;59861;50.268;8.648;2022-12-18T15:43:19;14.40;50.00
71994;DHT22;59861;50.268;8.648;2022-12-18T15:46:04;14.40;49.30
71994;DHT22;59861;50.268;8.648;2022-12-18T15:48:32;14.40;49.30
71994;DHT22;59861;50.268;8.648;2022-12-18T15:50:59;14.40;49.30
71994;DHT22;59861;50.268;8.648;2022-12-18T15:53:29;14.40;49.40
71994;DHT22;59861;50.268;8.648;2022-12-18T15:55:54;14.40;49.40
71994;DHT22;59861;50.268;8.648;2022-12-18T15:58:39;14.50;49.50
71994;DHT22;59861;50.268;8.648;2022-12-18T16:01:06;14.50;49.50
71994;DHT22;59861;50.268;8.648;2022-12-18T16:03:34;14.50;49.60
71994;DHT22;59861;50.268;8.648;2022-12-18T16:06:00;14.50;49.60
71994;DHT22;59861;50.268;8.648;2022-12-18T16:08:28;14.50;49.70
71994;DHT22;59861;50.268;8.648;2022-12-18T16:10:56;14.50;49.70
71994;DHT22;59861;50.268;8.648;2022-12-18T16:13:23;14.50;49.80
71994;DHT22;59861;50.268;8.648;2022-12-18T16:15:50;14.50;49.80
71994;DHT22;59861;50.268;8.648;2022-12-18T16:18:16;14.50;49.80
71994;DHT22;59861;50.268;8.648;2022-12-18T16:20:43;14.50;49.80
71994;DHT22;59861;50.268;8.648;2022-12-18T16:23:10;14.50;49.80
71994;DHT22;59861;50.268;8.648;2022-12-18T16:25:37;14.50;49.90
71994;DHT22;59861;50.268;8.648;2022-12-18T16:28:04;14.50;49.80
71994;DHT22;59861;50.268;8.648;2022-12-18T16:30:31;14.60;49.90
71994;DHT22;59861;50.268;8.648;2022-12-18T16:32:58;14.60;49.90
71994;DHT22;59861;50.268;8.648;2022-12-18T16:35:25;14.50;49.90
71994;DHT22;59861;50.268;8.648;2022-12-18T16:37:52;14.60;49.90
71994;DHT22;59861;50.268;8.648;2022-12-18T16:40:19;14.60;50.00
71994;DHT22;59861;50.268;8.648;2022-12-18T16:42:46;14.50;50.00
71994;DHT22;59861;50.268;8.648;2022-12-18T16:45:18;14.50;50.00
71994;DHT22;59861;50.268;8.648;2022-12-18T16:47:41;14.50;50.80
71994;DHT22;59861;50.268;8.648;2022-12-18T16:50:08;14.60;50.10